Time;durP1;ratioP1;P1;durP2;ratioP2;P2;SDS_P1;SDS_P2;PMS_P1;PMS_P2;Temp;Humidity;BMP_temperature;BMP_pressure;BME280_temperature;BME280_humidity;BME280_pressure;Samples;Min_cycle;Max_cycle;Signal;HPM_P1;HPM_P2
2021/06/07 00:01:55;;;;;;;51.70;38.00;;;17.70;97.70;;;;;;5016742;28;20087;-77
2021/06/07 00:04:21;;;;;;;52.22;39.30;;;17.70;97.70;;;;;;5032456;28;20090;-78
2021/06/07 00:06:47;;;;;;;56.38;39.00;;;17.50;98.10;;;;;;5034839;28;20104;-77
2021/06/07 00:09:15;;;;;;;52.80;39.00;;;17.60;98.10;;;;;;5034847;28;20037;-77
2021/06/07 00:11:44;;;;;;;51.25;37.28;;;17.60;98.00;;;;;;5033848;28;20040;-77
2021/06/07 00:14:11;;;;;;;49.63;37.17;;;17.80;97.70;;;;;;5029820;28;20033;-77
2021/06/07 00:16:37;;;;;;;50.42;38.83;;;17.60;98.00;;;;;;5021252;28;20147;-77
2021/06/07 00:19:10;;;;;;;54.35;41.05;;;17.70;97.80;;;;;;5051338;28;20036;-77
2021/06/07 00:21:36;;;;;;;52.28;39.95;;;17.60;97.90;;;;;;5035691;28;20036;-77
2021/06/07 00:24:03;;;;;;;57.95;40.58;;;17.80;97.70;;;;;;5051957;28;20037;-77
2021/06/07 00:26:28;;;;;;;60.08;42.90;;;17.70;97.80;;;;;;5049521;28;20029;-77
2021/06/07 00:28:55;;;;;;;60.92;43.13;;;17.70;97.90;;;;;;5038026;28;20373;-77
2021/06/07 00:31:21;;;;;;;63.28;44.20;;;17.70;97.80;;;;;;5052293;28;20079;-76
2021/06/07 00:33:47;;;;;;;51.88;40.22;;;17.70;97.80;;;;;;5034495;28;20030;-76
2021/06/07 00:36:13;;;;;;;56.78;42.42;;;17.80;97.60;;;;;;5018372;28;20492;-77
2021/06/07 00:38:39;;;;;;;52.28;40.42;;;17.80;97.70;;;;;;5034561;28;20045;-77
2021/06/07 00:41:07;;;;;;;57.55;42.38;;;17.90;97.60;;;;;;5034613;28;20083;-78
2021/06/07 00:43:34;;;;;;;56.25;40.63;;;17.80;97.70;;;;;;5052535;28;20021;-78
2021/06/07 00:45:59;;;;;;;55.78;40.67;;;17.80;97.70;;;;;;5035578;28;20032;-78
2021/06/07 00:48:26;;;;;;;59.90;43.05;;;17.90;97.40;;;;;;5018489;28;20025;-77
2021/06/07 00:50:55;;;;;;;55.65;41.40;;;17.80;97.70;;;;;;5014975;28;20050;-78
2021/06/07 00:53:21;;;;;;;57.28;41.17;;;17.90;97.50;;;;;;5044229;28;20040;-78
2021/06/07 00:55:51;;;;;;;58.65;42.45;;;18.00;97.20;;;;;;5048833;28;20017;-78
2021/06/07 00:58:18;;;;;;;62.20;43.42;;;18.00;97.20;;;;;;5015801;28;20034;-77
2021/06/07 01:00:45;;;;;;;62.40;44.25;;;18.00;97.40;;;;;;5043892;28;20080;-78
2021/06/07 01:03:16;;;;;;;55.28;41.55;;;17.80;97.60;;;;;;5049202;28;20021;-79
2021/06/07 01:05:43;;;;;;;62.10;46.28;;;17.90;97.50;;;;;;5016360;28;20033;-78
2021/06/07 01:08:09;;;;;;;63.17;44.45;;;17.80;97.70;;;;;;5052556;28;20029;-77
2021/06/07 01:10:35;;;;;;;62.70;45.50;;;17.60;97.90;;;;;;5044986;28;20044;-77
2021/06/07 01:13:01;;;;;;;61.50;46.65;;;17.60;98.20;;;;;;5034292;28;20115;-78
2021/06/07 01:15:27;;;;;;;60.40;42.88;;;17.60;98.20;;;;;;5030673;28;20083;-77
2021/06/07 01:17:53;;;;;;;65.55;45.97;;;17.60;98.20;;;;;;5044283;28;20033;-77
2021/06/07 01:20:20;;;;;;;63.90;45.40;;;17.80;97.80;;;;;;5017307;28;20424;-78
2021/06/07 01:22:48;;;;;;;60.42;43.60;;;17.80;97.80;;;;;;5043032;28;20033;-79
2021/06/07 01:25:27;;;;;;;59.90;44.72;;;17.90;97.70;;;;;;5053163;28;20025;-78
2021/06/07 01:27:55;;;;;;;64.18;44.80;;;18.10;97.30;;;;;;5047688;28;20040;-78
2021/06/07 01:30:26;;;;;;;58.85;44.70;;;18.10;97.30;;;;;;5055975;28;20021;-78
2021/06/07 01:32:52;;;;;;;62.67;43.42;;;18.00;97.40;;;;;;5030142;28;20029;-78
2021/06/07 01:35:18;;;;;;;64.57;43.92;;;18.10;97.30;;;;;;5044822;28;20025;-79
2021/06/07 01:37:45;;;;;;;59.17;45.38;;;18.00;97.50;;;;;;5053617;28;20118;-78
2021/06/07 01:40:20;;;;;;;69.57;47.60;;;17.90;97.50;;;;;;5055663;28;20082;-78
2021/06/07 01:42:49;;;;;;;62.42;44.17;;;17.90;97.70;;;;;;5045415;28;20037;-76
2021/06/07 01:45:17;;;;;;;62.60;45.95;;;18.00;97.40;;;;;;5054793;28;20098;-77
2021/06/07 01:47:43;;;;;;;62.13;42.80;;;18.20;97.10;;;;;;5051440;28;20033;-77
2021/06/07 01:50:10;;;;;;;61.28;44.63;;;18.20;97.00;;;;;;5041989;28;20098;-77
2021/06/07 01:52:46;;;;;;;61.65;45.42;;;18.20;97.10;;;;;;5015654;28;20060;-77
2021/06/07 01:55:14;;;;;;;58.53;43.05;;;18.20;97.10;;;;;;5029252;28;20107;-78
2021/06/07 01:57:42;;;;;;;60.08;42.83;;;18.20;97.00;;;;;;5033855;28;20052;-78
2021/06/07 02:00:16;;;;;;;60.65;43.60;;;18.20;96.90;;;;;;5029737;28;20037;-76
2021/06/07 02:02:44;;;;;;;61.63;44.92;;;18.20;97.10;;;;;;5036025;28;20249;-78
2021/06/07 02:05:14;;;;;;;60.35;42.28;;;18.10;97.40;;;;;;5036587;28;20036;-77
2021/06/07 02:07:48;;;;;;;55.90;43.00;;;18.20;97.00;;;;;;5042963;28;20034;-77
2021/06/07 02:10:15;;;;;;;60.08;43.85;;;18.20;97.10;;;;;;5047912;28;20029;-78
2021/06/07 02:12:41;;;;;;;71.38;47.47;;;18.30;96.90;;;;;;5006573;28;20037;-77
2021/06/07 02:15:09;;;;;;;64.00;46.22;;;18.10;97.10;;;;;;5020226;28;20388;-78
2021/06/07 02:17:35;;;;;;;59.33;43.17;;;18.20;97.10;;;;;;5038232;28;20115;-77
2021/06/07 02:20:01;;;;;;;65.13;44.80;;;18.10;97.20;;;;;;5055484;28;20114;-78
2021/06/07 02:22:27;;;;;;;58.45;42.53;;;18.00;97.40;;;;;;5028311;28;20041;-79
2021/06/07 02:24:52;;;;;;;62.63;43.65;;;18.00;97.40;;;;;;5023684;28;20125;-77
2021/06/07 02:27:18;;;;;;;58.75;44.17;;;18.10;97.20;;;;;;5004281;28;20039;-79
2021/06/07 02:29:43;;;;;;;61.75;43.97;;;18.10;97.30;;;;;;5019928;28;20455;-78
2021/06/07 02:32:09;;;;;;;67.22;45.38;;;18.20;97.00;;;;;;5006484;28;20111;-77
2021/06/07 02:34:37;;;;;;;65.78;46.47;;;18.10;97.10;;;;;;5044880;28;20064;-79
2021/06/07 02:37:03;;;;;;;64.95;46.53;;;18.00;97.40;;;;;;5051461;28;20036;-78
2021/06/07 02:39:29;;;;;;;68.13;45.28;;;18.00;97.30;;;;;;5054919;28;20115;-77
2021/06/07 02:41:55;;;;;;;63.72;45.35;;;17.90;97.70;;;;;;5053293;28;20124;-78
2021/06/07 02:44:23;;;;;;;64.00;45.78;;;17.90;97.50;;;;;;5056006;28;20032;-79
2021/06/07 02:46:49;;;;;;;63.38;46.50;;;18.10;97.40;;;;;;5038625;28;20051;-77
2021/06/07 02:49:14;;;;;;;63.65;45.53;;;18.10;97.30;;;;;;5007445;28;20520;-79
2021/06/07 02:51:40;;;;;;;68.43;46.50;;;18.10;97.20;;;;;;5021323;28;20033;-78
2021/06/07 02:54:07;;;;;;;67.47;47.03;;;18.10;97.20;;;;;;5035043;28;20033;-79
2021/06/07 02:56:33;;;;;;;60.20;43.90;;;18.10;97.20;;;;;;5041605;28;20761;-78
2021/06/07 02:58:58;;;;;;;63.03;44.40;;;18.00;97.10;;;;;;5050036;28;20588;-80
2021/06/07 03:01:24;;;;;;;62.70;46.38;;;18.00;97.10;;;;;;5054380;28;20182;-79
2021/06/07 03:14:29;;;;;;;64.68;48.22;;;18.00;97.10;;;;;;5038503;28;20029;-78
2021/06/07 03:16:54;;;;;;;58.67;45.03;;;17.80;97.70;;;;;;5010539;28;20124;-78
2021/06/07 03:26:06;;;;;;;67.78;46.83;;;17.90;97.50;;;;;;5049764;28;20033;-79
2021/06/07 03:28:32;;;;;;;66.38;46.47;;;18.00;97.40;;;;;;5039177;28;20116;-79
2021/06/07 03:30:59;;;;;;;68.03;47.30;;;18.00;97.40;;;;;;5037905;28;20063;-79
2021/06/07 03:33:25;;;;;;;66.00;46.90;;;18.00;97.20;;;;;;5048625;28;20036;-78
2021/06/07 03:35:56;;;;;;;68.13;47.30;;;18.00;97.40;;;;;;5036168;28;20121;-78
2021/06/07 03:38:23;;;;;;;64.05;46.42;;;17.80;97.60;;;;;;5031542;28;20155;-78
2021/06/07 03:40:52;;;;;;;70.95;48.45;;;17.90;97.50;;;;;;5013365;28;20047;-78
2021/06/07 03:43:20;;;;;;;59.35;46.85;;;17.90;97.50;;;;;;5015708;28;20057;-79
2021/06/07 03:45:45;;;;;;;64.43;46.42;;;17.90;97.50;;;;;;5025513;28;20044;-77
2021/06/07 03:48:12;;;;;;;63.80;46.58;;;17.90;97.60;;;;;;5048123;28;20037;-78
2021/06/07 03:50:39;;;;;;;65.05;43.85;;;18.00;97.40;;;;;;5019515;28;20045;-77
2021/06/07 03:53:05;;;;;;;59.20;45.97;;;18.00;97.10;;;;;;5045902;28;20029;-78
2021/06/07 03:55:32;;;;;;;63.80;45.58;;;18.10;97.00;;;;;;5042918;28;20029;-78
2021/06/07 03:57:58;;;;;;;62.97;45.28;;;18.00;97.00;;;;;;5014513;28;20082;-78
2021/06/07 04:00:27;;;;;;;61.58;44.97;;;18.00;96.90;;;;;;5034968;28;20033;-77
2021/06/07 04:02:53;;;;;;;62.92;47.17;;;17.90;97.00;;;;;;5035064;28;20484;-77
2021/06/07 04:05:19;;;;;;;62.33;46.92;;;17.90;97.00;;;;;;5018621;28;20040;-78
2021/06/07 04:07:45;;;;;;;64.78;45.70;;;17.90;97.10;;;;;;5030577;28;20048;-77
2021/06/07 04:10:15;;;;;;;62.20;45.30;;;17.90;96.90;;;;;;5045698;28;20036;-78
2021/06/07 04:12:40;;;;;;;61.53;47.25;;;18.00;96.90;;;;;;5015485;28;20032;-79
2021/06/07 04:15:08;;;;;;;65.50;47.83;;;18.10;96.80;;;;;;5029801;28;20377;-78
2021/06/07 04:17:34;;;;;;;60.28;45.97;;;18.00;96.90;;;;;;5020093;28;20064;-78
2021/06/07 04:20:00;;;;;;;64.13;47.85;;;18.00;96.90;;;;;;5035072;28;20089;-77
2021/06/07 04:22:26;;;;;;;61.63;48.92;;;17.90;96.90;;;;;;5034785;28;20112;-77
2021/06/07 04:24:51;;;;;;;58.08;46.50;;;17.80;97.10;;;;;;5031439;28;20026;-77
2021/06/07 04:27:17;;;;;;;61.13;46.97;;;17.90;97.10;;;;;;4994792;28;20041;-77
2021/06/07 04:29:44;;;;;;;58.63;49.20;;;18.00;96.80;;;;;;5022125;28;20504;-77
2021/06/07 04:32:10;;;;;;;64.32;48.58;;;17.90;97.00;;;;;;5044494;28;20041;-81
2021/06/07 04:34:36;;;;;;;63.47;49.33;;;17.90;96.90;;;;;;5034947;28;20029;-78
2021/06/07 04:37:04;;;;;;;59.58;47.13;;;17.90;96.90;;;;;;5044366;28;20082;-79
2021/06/07 04:39:29;;;;;;;57.58;47.30;;;17.90;96.90;;;;;;5004763;28;20026;-77
2021/06/07 04:41:55;;;;;;;61.08;48.17;;;18.00;96.90;;;;;;5023792;28;20036;-78
2021/06/07 04:44:21;;;;;;;64.55;49.78;;;18.00;96.80;;;;;;5025705;28;20095;-77
2021/06/07 04:46:47;;;;;;;60.10;47.92;;;18.10;96.60;;;;;;5005395;28;20069;-77
2021/06/07 04:49:12;;;;;;;63.00;49.00;;;18.00;96.80;;;;;;5021863;28;20044;-77
2021/06/07 04:51:38;;;;;;;63.78;51.78;;;18.10;96.70;;;;;;5032121;28;20484;-78
2021/06/07 04:54:05;;;;;;;67.40;51.08;;;18.10;96.70;;;;;;5019736;28;20036;-79
2021/06/07 04:56:30;;;;;;;63.35;52.53;;;18.00;96.60;;;;;;5033600;28;20064;-78
2021/06/07 04:58:56;;;;;;;64.18;52.75;;;18.00;96.70;;;;;;5048098;28;20029;-77
2021/06/07 05:01:22;;;;;;;63.78;51.33;;;17.90;96.60;;;;;;5043959;28;20047;-79
2021/06/07 05:03:47;;;;;;;63.88;50.60;;;17.90;96.80;;;;;;5043523;28;20116;-80
2021/06/07 05:06:13;;;;;;;64.47;51.20;;;18.00;96.70;;;;;;5058537;28;20396;-80
2021/06/07 05:08:38;;;;;;;65.22;50.22;;;18.00;96.70;;;;;;5058318;28;20485;-80
2021/06/07 05:11:04;;;;;;;62.92;50.03;;;18.10;96.60;;;;;;5033132;28;20033;-79
2021/06/07 05:13:30;;;;;;;62.65;49.55;;;18.10;96.60;;;;;;5018929;28;20044;-79
2021/06/07 05:15:57;;;;;;;60.00;48.25;;;18.20;96.50;;;;;;5024890;28;20032;-80
2021/06/07 05:18:23;;;;;;;59.47;48.13;;;18.30;96.40;;;;;;5053030;28;20036;-79
2021/06/07 05:20:49;;;;;;;55.85;47.58;;;18.30;96.20;;;;;;5048743;28;20056;-78
2021/06/07 05:23:14;;;;;;;64.72;50.17;;;18.30;96.20;;;;;;5072234;28;20029;-77
2021/06/07 05:25:42;;;;;;;67.22;51.13;;;18.40;96.00;;;;;;5019063;28;20037;-78
2021/06/07 05:28:10;;;;;;;64.57;49.78;;;18.20;96.30;;;;;;5054894;28;20042;-78
2021/06/07 05:30:38;;;;;;;62.40;49.95;;;18.20;96.30;;;;;;5054881;28;20039;-78
2021/06/07 05:33:05;;;;;;;65.25;48.75;;;18.20;96.30;;;;;;5001981;28;20029;-78
2021/06/07 05:35:34;;;;;;;103.63;58.70;;;18.30;96.20;;;;;;5029389;28;20119;-78
2021/06/07 05:38:00;;;;;;;86.30;56.17;;;18.30;96.20;;;;;;5052247;28;20029;-77
2021/06/07 05:40:28;;;;;;;76.05;54.08;;;18.40;95.80;;;;;;5055024;28;20025;-78
2021/06/07 05:42:54;;;;;;;59.30;50.67;;;18.40;95.80;;;;;;5040537;28;20124;-76
2021/06/07 05:45:20;;;;;;;64.32;51.88;;;18.30;95.90;;;;;;5020678;28;20064;-78
2021/06/07 05:47:46;;;;;;;63.40;51.38;;;18.40;95.80;;;;;;5045803;28;20152;-78
2021/06/07 05:50:21;;;;;;;62.95;51.20;;;18.50;95.80;;;;;;5015921;28;20048;-78
2021/06/07 05:52:48;;;;;;;62.70;50.30;;;18.50;95.60;;;;;;5020581;28;20470;-76
2021/06/07 05:55:18;;;;;;;63.00;49.95;;;18.40;96.00;;;;;;5001716;28;20506;-78
2021/06/07 05:57:45;;;;;;;64.65;50.30;;;18.50;95.80;;;;;;5021009;28;20067;-78
2021/06/07 06:00:13;;;;;;;60.08;52.50;;;18.50;95.60;;;;;;5054846;28;20147;-76
2021/06/07 06:02:38;;;;;;;60.40;51.45;;;18.50;95.70;;;;;;5041048;28;20040;-77
2021/06/07 06:05:04;;;;;;;57.40;48.75;;;18.50;95.60;;;;;;5044340;28;20040;-77
2021/06/07 06:07:30;;;;;;;61.83;51.05;;;18.70;95.40;;;;;;5054913;28;20442;-77
2021/06/07 06:09:56;;;;;;;65.85;52.92;;;18.70;95.10;;;;;;5053349;28;20112;-78
2021/06/07 06:12:22;;;;;;;63.83;51.28;;;18.70;95.20;;;;;;5037298;28;20174;-79
2021/06/07 06:14:47;;;;;;;58.83;50.17;;;18.60;95.30;;;;;;5021881;28;20036;-78
2021/06/07 06:17:13;;;;;;;60.63;51.25;;;18.80;95.20;;;;;;5021140;28;20032;-79
2021/06/07 06:19:39;;;;;;;59.42;51.75;;;18.80;95.00;;;;;;5044430;28;20040;-79
2021/06/07 06:22:06;;;;;;;56.88;50.72;;;18.70;95.00;;;;;;5041220;28;20047;-80
2021/06/07 06:24:32;;;;;;;64.32;51.90;;;18.60;95.40;;;;;;5027934;28;20520;-79
2021/06/07 06:26:58;;;;;;;59.90;50.78;;;18.60;95.30;;;;;;5026003;28;20029;-80
2021/06/07 06:29:24;;;;;;;61.15;51.38;;;18.80;95.20;;;;;;5025755;28;20508;-79
2021/06/07 06:31:50;;;;;;;59.58;50.83;;;18.80;95.10;;;;;;5025579;28;20069;-78
2021/06/07 06:34:15;;;;;;;62.17;50.85;;;18.90;94.70;;;;;;5033889;28;20060;-80
2021/06/07 06:36:41;;;;;;;57.67;48.28;;;18.80;94.90;;;;;;5024529;28;20037;-81
2021/06/07 06:39:07;;;;;;;55.92;48.40;;;19.00;94.70;;;;;;5014196;28;20029;-81
2021/06/07 06:41:34;;;;;;;61.40;52.28;;;19.20;94.60;;;;;;5021133;28;20123;-81
2021/06/07 06:43:59;;;;;;;58.53;50.17;;;19.20;94.50;;;;;;5030301;28;20036;-80
2021/06/07 06:46:26;;;;;;;60.03;50.25;;;19.30;94.30;;;;;;5035336;28;20040;-81
2021/06/07 06:48:52;;;;;;;60.00;52.03;;;19.40;93.90;;;;;;5046836;28;20032;-81
2021/06/07 06:51:18;;;;;;;60.90;51.40;;;19.40;93.80;;;;;;5047048;28;20386;-81
2021/06/07 06:53:43;;;;;;;61.83;50.78;;;19.30;93.90;;;;;;5032112;28;20035;-80
2021/06/07 06:56:09;;;;;;;68.38;55.13;;;19.20;94.00;;;;;;5021274;28;20038;-81
2021/06/07 06:58:35;;;;;;;56.58;50.33;;;19.10;94.20;;;;;;5055449;28;20025;-82
2021/06/07 07:01:00;;;;;;;62.10;51.95;;;19.00;94.30;;;;;;5037399;28;20400;-81
2021/06/07 07:03:26;;;;;;;58.70;50.22;;;19.10;94.10;;;;;;4992470;28;20094;-80
2021/06/07 07:05:53;;;;;;;57.05;49.35;;;19.20;93.90;;;;;;5038567;28;20044;-81
2021/06/07 07:08:21;;;;;;;58.80;49.92;;;19.20;93.90;;;;;;5025081;28;20036;-81
2021/06/07 07:10:46;;;;;;;56.70;49.47;;;19.20;93.80;;;;;;5045520;28;20175;-80
2021/06/07 07:13:13;;;;;;;59.20;51.63;;;19.30;93.50;;;;;;5021467;28;20053;-81
2021/06/07 07:15:39;;;;;;;57.45;49.85;;;19.30;93.30;;;;;;5043797;28;20104;-80
2021/06/07 07:18:06;;;;;;;58.05;51.90;;;19.40;93.40;;;;;;5034803;28;20025;-80
2021/06/07 07:20:33;;;;;;;58.60;50.53;;;19.30;93.30;;;;;;5037162;28;20029;-80
2021/06/07 07:22:58;;;;;;;57.55;51.20;;;19.30;93.50;;;;;;5034531;28;20056;-81
2021/06/07 07:25:24;;;;;;;56.22;50.08;;;19.40;93.40;;;;;;5016346;28;20052;-82
2021/06/07 07:27:50;;;;;;;55.78;48.25;;;19.60;93.00;;;;;;5017303;28;20053;-81
2021/06/07 07:30:18;;;;;;;55.67;49.63;;;19.60;93.00;;;;;;5058512;28;20029;-79
2021/06/07 07:32:46;;;;;;;56.42;49.75;;;19.50;92.80;;;;;;5035360;28;20056;-80
2021/06/07 07:35:14;;;;;;;57.80;49.83;;;19.40;93.10;;;;;;5036046;28;20049;-80
2021/06/07 07:37:41;;;;;;;58.15;51.72;;;19.60;93.00;;;;;;5046390;28;20033;-79
2021/06/07 07:40:09;;;;;;;59.33;48.63;;;19.50;93.20;;;;;;5014301;28;20048;-80
2021/06/07 07:42:35;;;;;;;57.65;50.85;;;19.60;93.10;;;;;;4998688;28;20500;-79
2021/06/07 07:45:03;;;;;;;59.35;50.25;;;19.50;93.20;;;;;;5034053;28;20040;-81
2021/06/07 07:47:29;;;;;;;59.05;51.17;;;19.60;93.00;;;;;;5015479;28;20416;-81
2021/06/07 07:49:56;;;;;;;57.90;49.80;;;19.60;92.70;;;;;;5018900;28;20065;-79
2021/06/07 07:52:25;;;;;;;56.63;50.35;;;19.50;92.90;;;;;;5036516;28;20883;-79
2021/06/07 07:54:52;;;;;;;56.08;50.00;;;19.70;92.90;;;;;;5029103;28;20408;-79
2021/06/07 07:57:17;;;;;;;55.80;49.67;;;19.70;92.80;;;;;;5035200;28;20035;-80
2021/06/07 07:59:43;;;;;;;57.92;51.08;;;19.80;92.90;;;;;;5039962;28;20119;-80
2021/06/07 08:02:10;;;;;;;59.08;52.38;;;19.60;93.10;;;;;;5019076;28;20041;-79
2021/06/07 08:04:36;;;;;;;57.97;50.40;;;19.40;93.60;;;;;;5012051;28;20038;-80
2021/06/07 08:07:02;;;;;;;56.00;48.88;;;19.50;93.60;;;;;;5027027;28;20039;-80
2021/06/07 08:09:30;;;;;;;52.78;47.10;;;19.70;93.20;;;;;;5016303;28;20044;-79
2021/06/07 08:11:57;;;;;;;54.65;47.83;;;19.80;93.00;;;;;;5016303;28;20128;-80
2021/06/07 08:14:23;;;;;;;52.72;46.95;;;19.90;93.00;;;;;;5035008;28;20098;-80
2021/06/07 08:16:49;;;;;;;52.72;47.00;;;19.90;92.90;;;;;;5007823;28;20408;-78
2021/06/07 08:19:18;;;;;;;49.80;44.17;;;19.90;92.20;;;;;;5052198;28;20025;-80
2021/06/07 08:21:46;;;;;;;54.20;45.38;;;19.90;92.50;;;;;;5046335;28;20056;-79
2021/06/07 08:24:11;;;;;;;50.15;44.78;;;19.90;92.80;;;;;;5008412;28;20401;-79
2021/06/07 08:26:37;;;;;;;56.42;47.50;;;19.70;92.90;;;;;;5045823;28;20044;-81
2021/06/07 08:29:03;;;;;;;50.90;45.40;;;19.60;93.10;;;;;;4985542;28;20101;-80
2021/06/07 08:31:34;;;;;;;50.63;43.20;;;19.80;92.90;;;;;;5037618;28;20546;-77
2021/06/07 08:34:04;;;;;;;51.15;44.88;;;19.80;93.00;;;;;;5040079;28;20029;-77
2021/06/07 08:36:30;;;;;;;50.65;43.35;;;20.00;92.30;;;;;;5057639;28;20029;-79
2021/06/07 08:38:57;;;;;;;50.10;44.78;;;20.00;92.10;;;;;;5039525;28;20025;-77
2021/06/07 08:41:23;;;;;;;49.67;44.28;;;20.10;92.10;;;;;;5040600;28;20071;-77
2021/06/07 08:43:48;;;;;;;50.35;41.45;;;20.20;91.90;;;;;;5047585;28;20056;-78
2021/06/07 08:46:14;;;;;;;50.15;43.35;;;20.40;91.80;;;;;;5040990;28;20102;-78
2021/06/07 08:48:40;;;;;;;48.80;42.22;;;20.40;91.50;;;;;;5019346;28;20070;-79
2021/06/07 08:51:07;;;;;;;46.83;41.72;;;20.40;91.70;;;;;;5041191;28;20480;-79
2021/06/07 08:53:35;;;;;;;47.55;42.42;;;20.30;92.00;;;;;;5041966;28;20025;-80
2021/06/07 08:56:01;;;;;;;48.88;42.38;;;20.50;91.50;;;;;;5036395;28;20094;-80
2021/06/07 08:58:27;;;;;;;49.30;41.70;;;20.50;91.30;;;;;;5044937;28;20024;-80
2021/06/07 09:00:53;;;;;;;50.83;41.08;;;20.70;91.20;;;;;;5051165;28;20489;-80
2021/06/07 09:03:21;;;;;;;52.60;43.80;;;20.80;90.80;;;;;;5041762;28;20041;-80
2021/06/07 09:05:56;;;;;;;48.42;42.28;;;20.70;90.80;;;;;;5043892;28;20033;-80
2021/06/07 09:08:30;;;;;;;47.55;41.85;;;20.50;91.30;;;;;;5048984;28;20037;-79
2021/06/07 09:10:56;;;;;;;;;;;20.50;91.00;;;;;;5024585;28;20562;-79
2021/06/07 09:13:24;;;;;;;48.83;41.00;;;20.40;91.20;;;;;;5020961;28;19917;-79
2021/06/07 09:15:52;;;;;;;46.80;41.67;;;20.60;91.10;;;;;;5043050;28;20057;-79
2021/06/07 09:18:39;;;;;;;46.03;41.28;;;20.70;91.00;;;;;;5053986;28;20051;-78
2021/06/07 09:21:11;;;;;;;45.10;39.95;;;21.10;90.30;;;;;;5036189;28;20021;-79
2021/06/07 09:24:04;;;;;;;45.70;40.83;;;21.10;90.20;;;;;;5058387;28;20681;-79
2021/06/07 09:26:35;;;;;;;45.20;40.35;;;20.90;90.40;;;;;;5036731;28;20044;-79
2021/06/07 09:29:04;;;;;;;49.28;43.33;;;20.80;90.60;;;;;;5065755;28;20074;-79
2021/06/07 09:31:35;;;;;;;48.08;42.97;;;20.70;90.70;;;;;;5037254;28;20044;-78
2021/06/07 09:34:07;;;;;;;48.22;43.10;;;20.40;91.00;;;;;;5027834;28;20163;-79
2021/06/07 09:36:35;;;;;;;46.97;42.00;;;20.30;91.30;;;;;;5028823;28;20033;-80
2021/06/07 09:39:16;;;;;;;48.50;43.40;;;20.60;90.80;;;;;;5028793;28;20099;-80
2021/06/07 09:42:01;;;;;;;44.30;39.40;;;20.60;90.60;;;;;;5034770;28;20322;-78
2021/06/07 09:44:52;;;;;;;44.65;39.97;;;20.60;90.70;;;;;;5023946;28;20048;-80
2021/06/07 09:47:31;;;;;;;45.88;40.22;;;20.80;90.50;;;;;;5047309;28;20073;-79
2021/06/07 09:49:59;;;;;;;43.25;38.75;;;20.90;90.40;;;;;;5042694;28;20029;-78
2021/06/07 09:52:34;;;;;;;44.85;39.97;;;21.10;90.30;;;;;;5014828;28;20037;-80
2021/06/07 09:55:06;;;;;;;45.30;40.58;;;21.00;90.30;;;;;;5023037;28;20025;-79
2021/06/07 09:57:48;;;;;;;44.15;39.33;;;20.90;90.30;;;;;;5053137;28;20039;-80
2021/06/07 10:00:34;;;;;;;46.90;41.83;;;21.10;90.20;;;;;;5011207;28;20037;-79
2021/06/07 10:03:23;;;;;;;49.45;40.03;;;21.10;89.50;;;;;;5043955;28;20033;-80
2021/06/07 10:06:03;;;;;;;44.35;38.33;;;21.20;90.00;;;;;;5041589;28;20036;-80
2021/06/07 10:08:50;;;;;;;46.75;38.05;;;21.00;89.90;;;;;;5043329;28;20033;-81
2021/06/07 10:11:32;;;;;;;43.25;38.63;;;21.00;90.00;;;;;;5040536;28;20040;-80
2021/06/07 10:14:27;;;;;;;42.60;38.08;;;20.80;90.40;;;;;;5044346;28;20551;-80
2021/06/07 10:16:57;;;;;;;42.40;38.05;;;20.80;90.30;;;;;;5023640;28;20463;-81
2021/06/07 10:19:39;;;;;;;41.70;37.50;;;21.00;89.90;;;;;;5040363;28;20029;-80
2021/06/07 10:22:06;;;;;;;41.97;37.58;;;21.00;89.60;;;;;;5039912;28;20052;-79
2021/06/07 10:24:32;;;;;;;43.22;38.72;;;21.30;88.60;;;;;;5031482;28;20033;-79
2021/06/07 10:26:59;;;;;;;41.45;37.08;;;21.60;88.20;;;;;;5060992;28;20037;-78
2021/06/07 10:29:35;;;;;;;43.53;38.22;;;21.60;87.70;;;;;;5061122;28;20029;-79
2021/06/07 10:32:24;;;;;;;43.47;38.92;;;21.30;88.50;;;;;;5043783;28;20450;-78
2021/06/07 10:35:00;;;;;;;44.92;40.17;;;21.40;87.20;;;;;;5021109;28;20124;-78
2021/06/07 10:37:28;;;;;;;42.30;38.10;;;21.30;87.20;;;;;;5056925;28;20033;-78
2021/06/07 10:40:13;;;;;;;44.75;39.78;;;21.40;87.30;;;;;;5018676;28;20064;-79
2021/06/07 10:43:00;;;;;;;43.70;39.13;;;21.70;86.70;;;;;;5034878;28;20485;-79
2021/06/07 10:45:31;;;;;;;42.92;38.70;;;21.80;85.80;;;;;;5042339;28;20111;-78
2021/06/07 10:47:58;;;;;;;40.50;36.38;;;21.90;85.60;;;;;;5045911;28;20048;-79
2021/06/07 10:50:27;;;;;;;39.78;35.58;;;22.20;85.30;;;;;;5029662;28;20075;-78
2021/06/07 10:53:02;;;;;;;43.42;34.30;;;22.30;85.10;;;;;;5058005;28;20029;-79
2021/06/07 10:55:30;;;;;;;41.40;37.00;;;22.20;85.50;;;;;;5044344;28;20053;-79
2021/06/07 10:58:01;;;;;;;41.97;37.67;;;22.10;84.60;;;;;;5048622;28;20052;-78
2021/06/07 11:00:38;;;;;;;39.22;35.00;;;22.00;84.40;;;;;;5033584;28;20124;-78
2021/06/07 11:03:15;;;;;;;39.67;35.63;;;22.00;84.80;;;;;;5047053;28;20120;-79
2021/06/07 11:05:55;;;;;;;39.42;35.58;;;22.20;84.30;;;;;;5060009;28;20029;-78
2021/06/07 11:08:30;;;;;;;42.50;38.17;;;22.30;84.40;;;;;;5040443;28;20044;-78
2021/06/07 11:11:03;;;;;;;41.33;37.20;;;22.20;83.70;;;;;;5049397;28;20036;-79
2021/06/07 11:13:50;;;;;;;39.58;34.80;;;22.10;83.80;;;;;;5041693;28;20498;-79
2021/06/07 11:16:40;;;;;;;40.65;36.25;;;22.30;84.30;;;;;;5058421;28;20108;-80
2021/06/07 11:19:18;;;;;;;36.65;32.75;;;22.10;83.20;;;;;;5062207;28;20036;-79
2021/06/07 11:21:56;;;;;;;36.60;32.60;;;22.00;84.30;;;;;;5029325;28;20056;-78
2021/06/07 11:24:27;;;;;;;34.28;30.60;;;22.40;83.90;;;;;;5054781;28;20033;-78
2021/06/07 11:26:53;;;;;;;34.20;30.77;;;22.30;85.50;;;;;;5035018;28;20032;-80
2021/06/07 11:29:19;;;;;;;33.72;30.08;;;22.90;83.20;;;;;;5024329;28;20037;-78
2021/06/07 11:31:56;;;;;;;36.88;32.88;;;22.90;82.80;;;;;;5057274;28;20103;-78
2021/06/07 11:34:49;;;;;;;33.30;29.73;;;22.90;81.90;;;;;;5026048;28;20029;-79
2021/06/07 11:37:30;;;;;;;35.28;31.58;;;22.70;82.80;;;;;;5046951;28;20108;-79
2021/06/07 11:39:55;;;;;;;36.10;32.33;;;22.30;83.50;;;;;;5028880;28;20100;-80
2021/06/07 11:42:24;;;;;;;35.90;31.05;;;22.40;83.40;;;;;;5008490;28;20072;-80
2021/06/07 11:45:05;;;;;;;36.67;32.78;;;22.50;83.10;;;;;;5023923;28;20033;-80
2021/06/07 11:47:40;;;;;;;33.85;29.85;;;22.70;82.20;;;;;;5051354;28;20100;-80
2021/06/07 11:50:11;;;;;;;36.40;30.35;;;22.60;83.10;;;;;;5032671;28;20477;-81
2021/06/07 11:52:47;;;;;;;35.75;29.65;;;22.90;82.80;;;;;;5065349;28;20036;-80
2021/06/07 11:55:36;;;;;;;33.92;30.42;;;22.90;82.90;;;;;;5052018;28;20078;-79
2021/06/07 11:58:22;;;;;;;35.40;30.05;;;22.80;82.50;;;;;;5049398;28;20036;-78
2021/06/07 12:00:51;;;;;;;36.03;30.63;;;22.80;83.00;;;;;;5039932;28;20457;-80
2021/06/07 12:03:28;;;;;;;34.03;30.50;;;22.80;82.40;;;;;;5024470;28;20109;-78
2021/06/07 12:05:55;;;;;;;34.70;29.25;;;23.00;82.10;;;;;;5059069;28;20032;-78
2021/06/07 12:08:23;;;;;;;32.40;28.30;;;22.90;83.00;;;;;;5023178;28;20547;-78
2021/06/07 12:11:01;;;;;;;33.17;29.80;;;22.80;84.00;;;;;;5033534;28;20033;-78
2021/06/07 12:13:41;;;;;;;31.85;28.60;;;23.00;81.70;;;;;;5039201;28;20562;-79
2021/06/07 12:16:15;;;;;;;37.25;29.98;;;23.30;81.00;;;;;;5019441;28;20497;-79
2021/06/07 12:18:49;;;;;;;33.00;29.02;;;23.30;80.80;;;;;;5026476;28;20029;-77
2021/06/07 12:21:31;;;;;;;32.65;27.35;;;22.90;81.80;;;;;;5040392;28;20087;-78
2021/06/07 12:24:02;;;;;;;30.30;26.92;;;23.10;81.90;;;;;;5032186;28;20083;-80
2021/06/07 12:29:26;;;;;;;32.03;28.27;;;22.90;81.60;;;;;;5058552;28;20431;-79
2021/06/07 12:32:17;;;;;;;31.50;28.13;;;23.20;80.30;;;;;;5028944;28;20038;-80
2021/06/07 12:35:04;;;;;;;31.73;27.10;;;23.10;80.80;;;;;;5055097;28;20044;-79
2021/06/07 12:37:34;;;;;;;31.92;28.05;;;23.20;81.50;;;;;;5039936;28;20028;-78
2021/06/07 12:40:13;;;;;;;31.65;27.05;;;23.10;82.00;;;;;;5059128;28;20044;-79
2021/06/07 12:42:40;;;;;;;32.05;27.25;;;23.00;82.40;;;;;;5057894;28;20033;-80
2021/06/07 12:45:12;;;;;;;30.85;26.10;;;23.10;81.90;;;;;;5055386;28;20040;-78
2021/06/07 12:47:38;;;;;;;27.35;24.52;;;23.60;80.40;;;;;;5044311;28;20033;-79
2021/06/07 12:50:08;;;;;;;28.48;24.92;;;23.30;81.80;;;;;;5060541;28;20040;-79
2021/06/07 12:52:35;;;;;;;30.70;26.00;;;23.70;80.30;;;;;;5055474;28;20029;-79
2021/06/07 12:55:03;;;;;;;29.30;26.20;;;23.90;79.40;;;;;;5024373;28;20033;-79
2021/06/07 12:57:30;;;;;;;30.70;25.33;;;24.00;78.20;;;;;;5049061;28;20032;-78
2021/06/07 12:59:59;;;;;;;29.88;24.40;;;24.00;79.10;;;;;;5039668;28;20033;-78